Impacts METAR Board
IDs:

KDEN - Denver Intl, CO, US

Updated at: 0800 UTC 22 Jul 2018
Potential Impact None Slight Moderate High
Time 21/20Z 21/21Z 21/22Z 21/23Z 22/00Z 22/01Z 22/02Z 22/03Z 22/04Z 22/05Z 22/06Z 22/07Z 22/08Z
Temp95 96 95 90 88 84 83 82 78 78 75 74 68
Dewpt46 45 45 48 47 50 51 50 51 52 55 56 55
Altim30.11 30.10 30.10 30.11 30.09 30.11 30.17 30.16 30.17 30.17 30.18 30.17 30.16
VIS10 10 10 10 10 10 10 10 10 10 10 10 10
CIG-- 220 160 140 140 160 160 160 160 180 180 180 200
CoverSCTBKNBKNBKNBKNBKNBKNBKNBKNBKNBKNBKNBKN
FltCatVFRVFRVFRVFRVFRVFRVFRVFRVFRVFRVFRVFRVFR
WX--------------------------
WDir280240290260240270606000230260180
WSpd6 6 11 21 12 10 7 3 5 0 8 4 9
WGst-- -- 17 30 -- -- -- -- -- -- -- -- --
Raw hourly METARs
KDEN 211953Z 28006KT 10SM FEW100 FEW140 SCT220 35/08 A3011 RMK AO2 SLP095 CB OMTNS DSNT NW T03500078
KDEN 212053Z 24006KT 10SM FEW100 SCT140 BKN220 36/07 A3010 RMK AO2 SLP094 T03560072 56015
KDEN 212153Z 29011G17KT 10SM FEW120 BKN160 BKN220 35/07 A3010 RMK AO2 LTG DSNT E SLP092 T03500072
KDEN 212253Z 26021G30KT 10SM FEW100 BKN140 BKN220 32/09 A3011 RMK AO2 PK WND 28035/2225 SLP100 T03220089
KDEN 212353Z 24012KT 10SM FEW065 SCT090 BKN140 BKN220 31/08 A3009 RMK AO2 PK WND 27032/2258 LTG DSNT NE AND E SLP097 T03110083 10361 20300 58003
KDEN 220053Z 27010KT 10SM SCT130 BKN160 BKN220 29/10 A3011 RMK AO2 LTG DSNT E SLP104 T02890100
KDEN 220153Z 06007KT 10SM FEW130 BKN160 BKN220 28/11 A3017 RMK AO2 SLP124 T02830106
KDEN 220253Z 06003KT 10SM FEW120 BKN160 BKN220 28/10 A3016 RMK AO2 SLP118 T02780100 50020
KDEN 220353Z VRB05KT 10SM BKN160 26/11 A3017 RMK AO2 SLP122 T02560106
KDEN 220453Z 00000KT 10SM FEW160 BKN180 26/11 A3017 RMK AO2 SLP117 T02560111
KDEN 220553Z 23008KT 10SM SCT160 BKN180 24/13 A3018 RMK AO2 SLP120 T02390128 10317 20233 51004
KDEN 220653Z 26004KT 10SM SCT160 BKN180 23/13 A3017 RMK AO2 SLP118 T02330133 403610200
KDEN 220753Z 18009KT 10SM FEW180 BKN200 20/13 A3016 RMK AO2 SLP117 T02000128



Page loaded:  08:18 UTC  |   01:18 AM Pacific  |   02:18 AM Mountain  |   03:18 AM Central  |   04:18 AM Eastern

 

ADVISORIES

FORECASTS

FORECASTS

OBSERVATIONS

USER TOOLS

ABOUT US